Wetterdaten: Dienstag, 19.06.2012
Datum Zeit Temperatur Luftfeuchte Regen Wind Richtung Richtung Taupunkt Windchill Windben
19.06.2012 00:00 19,2 C 74 % 0,0 l/m 3,9 km/h (1 Bft) N 360 14,4 C 19,0 C 1,9 km/h (1 Bft)
19.06.2012 00:05 19,0 C 76 % 0,0 l/m 3,7 km/h (1 Bft) O-SO 112 14,7 C 18,6 C 4,3 km/h (1 Bft)
19.06.2012 00:10 18,9 C 79 % 0,0 l/m 4,3 km/h (1 Bft) O-SO 112 15,2 C 18,3 C 11,4 km/h (2 Bft)
19.06.2012 00:13 18,5 C 81 % 0,0 l/m 8,7 km/h (2 Bft) SO 135 15,2 C 17,2 C 13,8 km/h (3 Bft)
19.06.2012 00:18 18,5 C 81 % 0,0 l/m 8,7 km/h (2 Bft) SO 135 15,2 C 17,2 C 13,8 km/h (3 Bft)
19.06.2012 00:20 18,5 C 81 % 0,0 l/m 8,7 km/h (2 Bft) SO 135 15,2 C 17,2 C 13,8 km/h (3 Bft)
19.06.2012 00:25 17,9 C 75 % 0,0 l/m 11,9 km/h (2 Bft) S-SO 157 13,4 C 15,1 C 24,1 km/h (4 Bft)
19.06.2012 00:30 15,9 C 79 % 0,0 l/m 13,4 km/h (3 Bft) SO 135 12,3 C 12,1 C 27,8 km/h (4 Bft)
19.06.2012 00:35 14,6 C 81 % 0,7 l/m 12,7 km/h (3 Bft) S-SO 157 11,4 C 11,1 C 11,9 km/h (2 Bft)
19.06.2012 00:40 13,8 C 86 % 8,9 l/m 14,6 km/h (3 Bft) SO 135 11,5 C 8,4 C 17,2 km/h (3 Bft)
19.06.2012 00:45 13,7 C 87 % 4,1 l/m 12,1 km/h (2 Bft) O 90 11,6 C 9,2 C 7,2 km/h (2 Bft)
19.06.2012 00:50 13,5 C 89 % 4,8 l/m 6,9 km/h (2 Bft) O-NO 67 11,7 C 12,6 C 4,3 km/h (1 Bft)
19.06.2012 00:55 13,7 C 89 % 2,1 l/m 5,5 km/h (1 Bft) N-NO 22 11,9 C 13,4 C 8,4 km/h (2 Bft)
19.06.2012 01:00 13,8 C 90 % 3,4 l/m 5,6 km/h (1 Bft) W-SW 247 12,2 C 13,6 C 2,1 km/h (1 Bft)
19.06.2012 01:05 13,9 C 90 % 0,7 l/m 5,1 km/h (1 Bft) N-NW 337 12,3 C 13,8 C 3,9 km/h (1 Bft)
19.06.2012 01:10 14,2 C 90 % 0,7 l/m 3,7 km/h (1 Bft) O-SO 112 12,6 C 14,0 C 6,6 km/h (2 Bft)
19.06.2012 01:15 14,1 C 91 % 0,7 l/m 4,2 km/h (1 Bft) S 180 12,7 C 14,0 C 5,1 km/h (1 Bft)
19.06.2012 01:20 14,0 C 91 % 2,7 l/m 3,7 km/h (1 Bft) S-SO 157 12,6 C 13,9 C 3,9 km/h (1 Bft)
19.06.2012 01:25 13,9 C 91 % 0,0 l/m 2,3 km/h (1 Bft) N 360 12,5 C 13,9 C 0,0 km/h (0 Bft)
19.06.2012 01:28 13,8 C 91 % 4,1 l/m 1,9 km/h (1 Bft) W-NW 292 12,4 C 13,9 C 3,4 km/h (1 Bft)
19.06.2012 01:32 13,8 C 91 % 0,0 l/m 1,9 km/h (1 Bft) W-NW 292 12,4 C 13,9 C 3,4 km/h (1 Bft)
19.06.2012 01:35 13,8 C 91 % 0,0 l/m 1,9 km/h (1 Bft) W-NW 292 12,4 C 13,9 C 3,4 km/h (1 Bft)
19.06.2012 01:40 13,8 C 91 % 0,7 l/m 3,1 km/h (1 Bft) W-SW 247 12,4 C 13,8 C 1,6 km/h (1 Bft)
19.06.2012 01:43 13,9 C 92 % 0,0 l/m 3,4 km/h (1 Bft) SO 135 12,6 C 13,8 C 8,5 km/h (2 Bft)
19.06.2012 01:48 14,0 C 92 % 0,7 l/m 4,0 km/h (1 Bft) S 180 12,7 C 13,9 C 3,4 km/h (1 Bft)
19.06.2012 01:51 14,0 C 92 % 0,0 l/m 4,0 km/h (1 Bft) S 180 12,7 C 13,9 C 3,4 km/h (1 Bft)
19.06.2012 02:02 14,0 C 92 % 0,7 l/m 1,0 km/h (0 Bft) N-NW 337 12,7 C 13,9 C 2,4 km/h (1 Bft)
19.06.2012 02:05 14,0 C 92 % 0,0 l/m 1,0 km/h (0 Bft) N-NW 337 12,7 C 13,9 C 2,4 km/h (1 Bft)
19.06.2012 02:10 14,2 C 92 % 0,0 l/m 1,0 km/h (0 Bft) N 360 12,9 C 14,0 C 4,8 km/h (1 Bft)
19.06.2012 02:15 14,3 C 92 % 0,0 l/m 1,4 km/h (1 Bft) N 360 13,0 C 14,2 C 0,0 km/h (0 Bft)
19.06.2012 02:20 14,3 C 92 % 0,0 l/m 1,3 km/h (1 Bft) N 360 13,0 C 14,3 C 0,0 km/h (0 Bft)
19.06.2012 02:23 14,3 C 92 % 0,0 l/m 0,3 km/h (0 Bft) N 360 13,0 C 14,3 C 0,0 km/h (0 Bft)
19.06.2012 02:28 14,3 C 92 % 0,0 l/m 0,2 km/h (0 Bft) W-SW 247 13,0 C 14,3 C 0,0 km/h (0 Bft)
19.06.2012 02:35 14,3 C 92 % 0,0 l/m 0,2 km/h (0 Bft) W-SW 247 13,0 C 14,3 C 0,0 km/h (0 Bft)
19.06.2012 02:40 14,3 C 92 % 0,0 l/m 1,3 km/h (1 Bft) N-NW 337 13,0 C 14,3 C 4,7 km/h (1 Bft)
19.06.2012 02:45 14,3 C 92 % 0,0 l/m 2,3 km/h (1 Bft) W-SW 247 13,0 C 14,3 C 4,7 km/h (1 Bft)
19.06.2012 02:50 14,2 C 93 % 0,0 l/m 3,4 km/h (1 Bft) S 180 13,1 C 14,3 C 3,7 km/h (1 Bft)
19.06.2012 02:55 14,2 C 93 % 0,0 l/m 5,1 km/h (1 Bft) W-NW 292 13,1 C 14,3 C 7,9 km/h (2 Bft)
19.06.2012 03:00 14,2 C 93 % 0,7 l/m 5,3 km/h (1 Bft) W 270 13,1 C 14,3 C 6,3 km/h (2 Bft)
19.06.2012 03:05 14,2 C 93 % 0,0 l/m 4,3 km/h (1 Bft) W-SW 247 13,1 C 14,3 C 2,3 km/h (1 Bft)
19.06.2012 03:10 14,2 C 93 % 0,0 l/m 2,6 km/h (1 Bft) N-NW 337 13,1 C 14,3 C 0,0 km/h (0 Bft)
19.06.2012 03:15 14,3 C 93 % 0,0 l/m 1,9 km/h (1 Bft) N-NW 337 13,2 C 14,3 C 5,5 km/h (1 Bft)
19.06.2012 03:18 14,3 C 93 % 0,0 l/m 3,5 km/h (1 Bft) N-NW 337 13,2 C 14,3 C 4,8 km/h (1 Bft)
19.06.2012 03:25 14,3 C 93 % 0,0 l/m 3,5 km/h (1 Bft) N-NW 337 13,2 C 14,3 C 4,8 km/h (1 Bft)
19.06.2012 03:30 14,3 C 93 % 0,0 l/m 4,0 km/h (1 Bft) N-NW 337 13,2 C 14,3 C 5,1 km/h (1 Bft)
19.06.2012 03:35 14,2 C 93 % 0,0 l/m 4,0 km/h (1 Bft) W-NW 292 13,1 C 14,2 C 7,6 km/h (2 Bft)
19.06.2012 03:40 14,1 C 93 % 0,0 l/m 3,7 km/h (1 Bft) S 180 13,0 C 14,2 C 2,4 km/h (1 Bft)
19.06.2012 03:45 14,1 C 93 % 0,0 l/m 3,1 km/h (1 Bft) NW 315 13,0 C 14,2 C 4,2 km/h (1 Bft)
19.06.2012 03:50 14,1 C 93 % 0,0 l/m 1,9 km/h (1 Bft) W-NW 292 13,0 C 14,2 C 5,8 km/h (2 Bft)
19.06.2012 03:55 14,2 C 93 % 0,0 l/m 2,3 km/h (1 Bft) NW 315 13,1 C 14,3 C 4,5 km/h (1 Bft)
19.06.2012 04:00 14,3 C 93 % 0,0 l/m 2,6 km/h (1 Bft) N-NO 22 13,2 C 14,4 C 0,0 km/h (0 Bft)
19.06.2012 04:05 14,2 C 93 % 0,0 l/m 1,3 km/h (1 Bft) W-SW 247 13,1 C 14,3 C 2,1 km/h (1 Bft)
19.06.2012 04:10 14,4 C 93 % 0,0 l/m 2,4 km/h (1 Bft) W-NW 292 13,3 C 14,4 C 3,5 km/h (1 Bft)
19.06.2012 04:15 14,4 C 93 % 0,0 l/m 3,7 km/h (1 Bft) W-NW 292 13,3 C 14,6 C 0,0 km/h (0 Bft)
19.06.2012 04:20 14,3 C 93 % 0,0 l/m 1,9 km/h (1 Bft) W-NW 292 13,2 C 14,6 C 0,0 km/h (0 Bft)
19.06.2012 04:25 14,3 C 93 % 0,0 l/m 0,6 km/h (0 Bft) NW 315 13,2 C 14,5 C 2,3 km/h (1 Bft)
19.06.2012 04:30 14,4 C 93 % 0,0 l/m 1,1 km/h (1 Bft) N-NW 337 13,3 C 14,5 C 1,6 km/h (1 Bft)
19.06.2012 04:35 14,4 C 93 % 0,0 l/m 1,4 km/h (1 Bft) W-NW 292 13,3 C 14,5 C 0,0 km/h (0 Bft)
19.06.2012 04:40 14,3 C 93 % 0,0 l/m 1,8 km/h (1 Bft) W-SW 247 13,2 C 14,5 C 3,5 km/h (1 Bft)
19.06.2012 04:45 14,3 C 93 % 0,0 l/m 1,3 km/h (1 Bft) NO 45 13,2 C 14,4 C 0,0 km/h (0 Bft)
19.06.2012 04:50 14,3 C 93 % 0,0 l/m 0,5 km/h (0 Bft) N-NO 22 13,2 C 14,3 C 0,0 km/h (0 Bft)
19.06.2012 04:55 14,3 C 93 % 0,0 l/m 0,2 km/h (0 Bft) N-NW 337 13,2 C 14,3 C 0,0 km/h (0 Bft)
19.06.2012 05:00 14,1 C 93 % 0,0 l/m 0,0 km/h (0 Bft) N-NO 22 13,0 C 14,1 C 0,0 km/h (0 Bft)
19.06.2012 05:05 14,1 C 93 % 0,0 l/m 0,2 km/h (0 Bft) W-NW 292 13,0 C 14,1 C 0,0 km/h (0 Bft)
19.06.2012 05:10 14,1 C 93 % 0,0 l/m 0,6 km/h (0 Bft) NW 315 13,0 C 14,0 C 0,0 km/h (0 Bft)
19.06.2012 05:15 14,0 C 93 % 0,0 l/m 0,5 km/h (0 Bft) O 90 12,9 C 13,9 C 0,0 km/h (0 Bft)
19.06.2012 05:20 13,9 C 93 % 0,0 l/m 0,5 km/h (0 Bft) S 180 12,8 C 13,8 C 0,0 km/h (0 Bft)
19.06.2012 05:25 13,8 C 93 % 0,0 l/m 0,3 km/h (0 Bft) N 360 12,7 C 13,8 C 0,0 km/h (0 Bft)
19.06.2012 05:30 13,9 C 93 % 0,0 l/m 0,2 km/h (0 Bft) N-NO 22 12,8 C 13,7 C 0,0 km/h (0 Bft)
19.06.2012 05:35 13,8 C 93 % 0,0 l/m 0,2 km/h (0 Bft) W-SW 247 12,7 C 13,7 C 0,0 km/h (0 Bft)
19.06.2012 05:40 13,7 C 93 % 0,0 l/m 0,0 km/h (0 Bft) W-SW 247 12,6 C 13,6 C 0,0 km/h (0 Bft)
19.06.2012 05:45 13,6 C 93 % 0,0 l/m 0,0 km/h (0 Bft) N-NO 22 12,5 C 13,6 C 0,0 km/h (0 Bft)
19.06.2012 05:50 13,6 C 93 % 0,0 l/m 0,0 km/h (0 Bft) W-NW 292 12,5 C 13,5 C 0,0 km/h (0 Bft)
19.06.2012 05:55 13,6 C 93 % 0,0 l/m 0,0 km/h (0 Bft) S-SO 157 12,5 C 13,5 C 0,0 km/h (0 Bft)
19.06.2012 06:00 13,7 C 93 % 0,0 l/m 0,2 km/h (0 Bft) W 270 12,6 C 13,5 C 2,7 km/h (1 Bft)
19.06.2012 06:05 13,6 C 93 % 0,0 l/m 1,0 km/h (0 Bft) NW 315 12,5 C 13,7 C 2,6 km/h (1 Bft)
19.06.2012 06:10 13,8 C 93 % 0,0 l/m 1,3 km/h (1 Bft) N 360 12,7 C 13,7 C 0,0 km/h (0 Bft)
19.06.2012 06:15 13,7 C 93 % 0,0 l/m 0,3 km/h (0 Bft) W-NW 292 12,6 C 13,7 C 0,0 km/h (0 Bft)
19.06.2012 06:20 13,8 C 93 % 0,0 l/m 0,0 km/h (0 Bft) SO 135 12,7 C 13,7 C 0,0 km/h (0 Bft)
19.06.2012 06:25 13,8 C 93 % 0,0 l/m 0,0 km/h (0 Bft) N 360 12,7 C 13,7 C 0,0 km/h (0 Bft)
19.06.2012 06:30 13,9 C 93 % 0,0 l/m 0,2 km/h (0 Bft) N 360 12,8 C 13,7 C 0,0 km/h (0 Bft)
19.06.2012 06:35 13,9 C 93 % 0,0 l/m 0,2 km/h (0 Bft) S-SW 202 12,8 C 13,8 C 0,0 km/h (0 Bft)
19.06.2012 06:40 14,0 C 93 % 0,0 l/m 0,0 km/h (0 Bft) S-SO 157 12,9 C 13,8 C 0,0 km/h (0 Bft)
19.06.2012 06:45 14,1 C 93 % 0,0 l/m 0,0 km/h (0 Bft) S 180 13,0 C 14,0 C 0,0 km/h (0 Bft)
19.06.2012 06:50 14,7 C 93 % 0,0 l/m 0,0 km/h (0 Bft) W-SW 247 13,6 C 14,3 C 0,0 km/h (0 Bft)
19.06.2012 06:55 14,7 C 93 % 0,0 l/m 0,0 km/h (0 Bft) W-SW 247 13,6 C 14,6 C 0,0 km/h (0 Bft)
19.06.2012 07:00 14,4 C 93 % 0,0 l/m 0,8 km/h (0 Bft) W-NW 292 13,3 C 14,7 C 2,6 km/h (1 Bft)
19.06.2012 07:05 14,3 C 93 % 0,0 l/m 1,3 km/h (1 Bft) N-NW 337 13,2 C 14,6 C 0,0 km/h (0 Bft)
19.06.2012 07:10 14,7 C 93 % 0,0 l/m 1,4 km/h (1 Bft) W-NW 292 13,6 C 14,9 C 1,9 km/h (1 Bft)
19.06.2012 07:15 14,9 C 93 % 0,0 l/m 1,0 km/h (0 Bft) N-NO 22 13,8 C 15,0 C 0,0 km/h (0 Bft)
19.06.2012 07:20 15,4 C 92 % 0,0 l/m 0,6 km/h (0 Bft) N 360 14,1 C 15,7 C 0,0 km/h (0 Bft)
19.06.2012 07:25 15,8 C 92 % 0,0 l/m 0,3 km/h (0 Bft) W-NW 292 14,5 C 16,2 C 1,9 km/h (1 Bft)
19.06.2012 07:30 15,7 C 92 % 0,0 l/m 0,8 km/h (0 Bft) S-SW 202 14,4 C 16,3 C 0,0 km/h (0 Bft)
19.06.2012 07:35 16,3 C 90 % 0,0 l/m 1,0 km/h (0 Bft) W-NW 292 14,7 C 16,6 C 0,0 km/h (0 Bft)
19.06.2012 07:40 17,0 C 90 % 0,0 l/m 0,3 km/h (0 Bft) W-NW 292 15,3 C 18,0 C 0,0 km/h (0 Bft)
19.06.2012 07:45 17,2 C 89 % 0,0 l/m 0,2 km/h (0 Bft) NW 315 15,4 C 18,9 C 0,0 km/h (0 Bft)
19.06.2012 07:50 17,5 C 88 % 0,0 l/m 1,0 km/h (0 Bft) NW 315 15,5 C 19,9 C 3,5 km/h (1 Bft)
19.06.2012 07:55 19,1 C 88 % 0,0 l/m 1,0 km/h (0 Bft) W-SW 247 17,1 C 20,3 C 2,4 km/h (1 Bft)
19.06.2012 08:00 17,4 C 88 % 0,0 l/m 1,4 km/h (1 Bft) W-NW 292 15,4 C 20,2 C 3,5 km/h (1 Bft)
19.06.2012 08:05 17,0 C 88 % 0,0 l/m 2,3 km/h (1 Bft) W-SW 247 15,0 C 19,2 C 3,4 km/h (1 Bft)
19.06.2012 08:10 17,3 C 89 % 0,0 l/m 1,8 km/h (1 Bft) W 270 15,5 C 19,0 C 0,0 km/h (0 Bft)
19.06.2012 08:15 18,9 C 87 % 0,0 l/m 1,3 km/h (1 Bft) NW 315 16,7 C 20,2 C 1,8 km/h (1 Bft)
19.06.2012 08:20 19,8 C 86 % 0,0 l/m 1,3 km/h (1 Bft) N-NO 22 17,4 C 22,1 C 2,1 km/h (1 Bft)
19.06.2012 08:25 20,4 C 85 % 0,0 l/m 1,4 km/h (1 Bft) NO 45 17,8 C 22,8 C 2,4 km/h (1 Bft)
19.06.2012 08:30 19,9 C 84 % 0,0 l/m 2,6 km/h (1 Bft) W-SW 247 17,1 C 22,7 C 4,7 km/h (1 Bft)
19.06.2012 08:35 21,1 C 84 % 0,0 l/m 2,7 km/h (1 Bft) W-SW 247 18,3 C 22,8 C 5,5 km/h (1 Bft)
19.06.2012 08:40 21,5 C 83 % 0,0 l/m 3,1 km/h (1 Bft) S-SW 202 18,5 C 23,1 C 3,5 km/h (1 Bft)
19.06.2012 08:45 21,6 C 83 % 0,0 l/m 3,4 km/h (1 Bft) S-SW 202 18,7 C 23,3 C 3,2 km/h (1 Bft)
19.06.2012 08:50 21,8 C 83 % 0,0 l/m 3,1 km/h (1 Bft) S-SW 202 19,2 C 23,8 C 3,2 km/h (1 Bft)
19.06.2012 08:55 22,0 C 83 % 0,0 l/m 2,7 km/h (1 Bft) W-NW 292 19,6 C 24,1 C 2,4 km/h (1 Bft)
19.06.2012 09:00 22,0 C 81 % 0,0 l/m 2,6 km/h (1 Bft) W-SW 247 18,8 C 24,5 C 3,2 km/h (1 Bft)
19.06.2012 09:05 22,0 C 82 % 0,0 l/m 3,1 km/h (1 Bft) S-SW 202 19,3 C 24,5 C 6,4 km/h (2 Bft)
19.06.2012 09:10 22,3 C 81 % 0,0 l/m 4,0 km/h (1 Bft) W-SW 247 19,0 C 24,2 C 5,0 km/h (1 Bft)
19.06.2012 09:15 22,3 C 81 % 0,0 l/m 4,5 km/h (1 Bft) S 180 19,1 C 24,3 C 5,1 km/h (1 Bft)
19.06.2012 09:20 22,8 C 80 % 0,0 l/m 4,0 km/h (1 Bft) W-SW 247 19,6 C 24,6 C 3,9 km/h (1 Bft)
19.06.2012 09:25 22,7 C 79 % 0,0 l/m 4,0 km/h (1 Bft) W-SW 247 18,9 C 24,6 C 3,2 km/h (1 Bft)
19.06.2012 09:30 22,7 C 79 % 0,0 l/m 4,0 km/h (1 Bft) SW 225 19,3 C 24,8 C 4,5 km/h (1 Bft)
19.06.2012 09:35 22,7 C 80 % 0,0 l/m 4,2 km/h (1 Bft) W-SW 247 19,3 C 24,6 C 5,5 km/h (1 Bft)
19.06.2012 09:40 22,4 C 81 % 0,0 l/m 5,1 km/h (1 Bft) W 270 19,5 C 24,3 C 6,8 km/h (2 Bft)
19.06.2012 09:45 22,4 C 79 % 0,0 l/m 5,1 km/h (1 Bft) N-NW 337 18,9 C 24,3 C 7,2 km/h (2 Bft)
19.06.2012 09:50 23,1 C 80 % 0,0 l/m 4,2 km/h (1 Bft) W-NW 292 19,7 C 24,8 C 4,2 km/h (1 Bft)
19.06.2012 09:55 23,1 C 80 % 0,0 l/m 4,0 km/h (1 Bft) N 360 19,5 C 25,0 C 2,6 km/h (1 Bft)
19.06.2012 10:00 23,5 C 81 % 0,0 l/m 3,9 km/h (1 Bft) W-SW 247 20,7 C 25,3 C 4,2 km/h (1 Bft)
19.06.2012 10:05 23,6 C 80 % 0,0 l/m 3,2 km/h (1 Bft) N 360 20,0 C 25,8 C 3,9 km/h (1 Bft)
19.06.2012 10:10 23,8 C 79 % 0,0 l/m 3,1 km/h (1 Bft) W-SW 247 19,9 C 26,6 C 4,3 km/h (1 Bft)
19.06.2012 10:15 24,5 C 79 % 0,0 l/m 3,2 km/h (1 Bft) W-NW 292 20,7 C 26,6 C 4,8 km/h (1 Bft)
19.06.2012 10:20 24,4 C 76 % 0,0 l/m 4,0 km/h (1 Bft) W-NW 292 19,9 C 26,5 C 5,0 km/h (1 Bft)
19.06.2012 10:25 24,3 C 78 % 0,0 l/m 4,2 km/h (1 Bft) S-SW 202 20,2 C 26,4 C 2,7 km/h (1 Bft)
19.06.2012 10:30 24,6 C 80 % 0,0 l/m 3,2 km/h (1 Bft) W-SW 247 20,9 C 27,2 C 6,6 km/h (2 Bft)
19.06.2012 10:35 24,4 C 77 % 0,0 l/m 3,5 km/h (1 Bft) O-SO 112 20,1 C 26,9 C 5,6 km/h (1 Bft)
19.06.2012 10:40 24,8 C 77 % 0,0 l/m 4,7 km/h (1 Bft) W 270 20,5 C 27,0 C 7,7 km/h (2 Bft)
19.06.2012 10:45 24,5 C 74 % 0,0 l/m 4,3 km/h (1 Bft) W-SW 247 19,6 C 26,8 C 7,7 km/h (2 Bft)
19.06.2012 10:50 24,5 C 70 % 0,0 l/m 4,5 km/h (1 Bft) W 270 18,7 C 26,7 C 4,8 km/h (1 Bft)
19.06.2012 10:55 24,7 C 74 % 0,0 l/m 4,7 km/h (1 Bft) SW 225 19,7 C 26,9 C 4,3 km/h (1 Bft)
19.06.2012 11:00 24,9 C 72 % 0,0 l/m 4,5 km/h (1 Bft) N-NW 337 19,5 C 27,2 C 3,4 km/h (1 Bft)
19.06.2012 11:05 24,7 C 70 % 0,0 l/m 4,0 km/h (1 Bft) N 360 18,8 C 27,2 C 3,9 km/h (1 Bft)
19.06.2012 11:10 24,7 C 71 % 0,0 l/m 3,2 km/h (1 Bft) W-NW 292 19,1 C 27,7 C 7,7 km/h (2 Bft)
19.06.2012 11:15 25,1 C 67 % 0,0 l/m 3,5 km/h (1 Bft) W-NW 292 18,5 C 27,5 C 5,0 km/h (1 Bft)
19.06.2012 11:20 25,0 C 66 % 0,0 l/m 4,0 km/h (1 Bft) W-NW 292 18,2 C 27,8 C 3,9 km/h (1 Bft)
19.06.2012 11:25 24,8 C 66 % 0,0 l/m 3,7 km/h (1 Bft) W 270 18,0 C 28,0 C 6,3 km/h (2 Bft)
19.06.2012 11:30 25,5 C 68 % 0,0 l/m 3,5 km/h (1 Bft) W 270 19,1 C 28,2 C 7,4 km/h (2 Bft)
19.06.2012 11:35 26,0 C 60 % 0,0 l/m 4,0 km/h (1 Bft) NW 315 17,6 C 28,2 C 7,1 km/h (2 Bft)
19.06.2012 11:40 25,6 C 59 % 0,0 l/m 5,1 km/h (1 Bft) W-NW 292 17,0 C 28,0 C 7,9 km/h (2 Bft)
19.06.2012 11:45 25,2 C 59 % 0,0 l/m 5,1 km/h (1 Bft) S 180 16,6 C 27,7 C 6,6 km/h (2 Bft)
19.06.2012 11:50 25,7 C 58 % 0,0 l/m 5,0 km/h (1 Bft) W 270 16,8 C 27,8 C 8,0 km/h (2 Bft)
19.06.2012 11:55 26,4 C 58 % 0,0 l/m 4,5 km/h (1 Bft) W-NW 292 17,5 C 28,0 C 6,1 km/h (2 Bft)
19.06.2012 12:00 26,5 C 58 % 0,0 l/m 4,3 km/h (1 Bft) W-SW 247 17,5 C 28,2 C 5,8 km/h (2 Bft)
19.06.2012 12:05 26,8 C 56 % 0,0 l/m 5,1 km/h (1 Bft) W 270 17,3 C 28,0 C 4,3 km/h (1 Bft)
19.06.2012 12:10 26,7 C 56 % 0,0 l/m 6,0 km/h (2 Bft) W-NW 292 17,2 C 27,7 C 7,2 km/h (2 Bft)
19.06.2012 12:15 26,6 C 56 % 0,0 l/m 5,1 km/h (1 Bft) NO 45 17,1 C 27,9 C 9,8 km/h (2 Bft)
19.06.2012 12:20 26,9 C 55 % 0,0 l/m 5,6 km/h (1 Bft) W-SW 247 17,1 C 27,9 C 7,9 km/h (2 Bft)
19.06.2012 12:25 27,0 C 55 % 0,0 l/m 5,6 km/h (1 Bft) W-NW 292 17,2 C 28,0 C 6,9 km/h (2 Bft)
19.06.2012 12:30 27,2 C 56 % 0,0 l/m 5,6 km/h (1 Bft) W-NW 292 17,6 C 27,9 C 5,5 km/h (1 Bft)
19.06.2012 12:35 27,3 C 53 % 0,0 l/m 6,0 km/h (2 Bft) N 360 16,9 C 27,9 C 9,5 km/h (2 Bft)
19.06.2012 12:40 27,3 C 54 % 0,0 l/m 6,1 km/h (2 Bft) W-NW 292 17,2 C 27,9 C 7,9 km/h (2 Bft)
19.06.2012 12:45 27,3 C 56 % 0,0 l/m 6,3 km/h (2 Bft) S 180 17,7 C 28,0 C 8,0 km/h (2 Bft)
19.06.2012 12:50 27,2 C 55 % 0,0 l/m 6,4 km/h (2 Bft) SO 135 17,4 C 27,7 C 9,3 km/h (2 Bft)
19.06.2012 12:55 27,4 C 54 % 0,0 l/m 6,8 km/h (2 Bft) S-SW 202 17,3 C 27,6 C 9,0 km/h (2 Bft)
19.06.2012 13:00 27,6 C 55 % 0,0 l/m 6,3 km/h (2 Bft) SO 135 17,7 C 28,2 C 5,5 km/h (1 Bft)
19.06.2012 13:05 27,5 C 55 % 0,0 l/m 6,3 km/h (2 Bft) W-SW 247 17,6 C 28,3 C 3,4 km/h (1 Bft)
19.06.2012 13:10 27,3 C 56 % 0,0 l/m 5,8 km/h (2 Bft) W-NW 292 17,7 C 28,6 C 6,4 km/h (2 Bft)
19.06.2012 13:15 27,3 C 55 % 0,0 l/m 5,6 km/h (1 Bft) W-NW 292 17,4 C 28,5 C 7,2 km/h (2 Bft)
19.06.2012 13:20 27,3 C 55 % 0,0 l/m 6,0 km/h (2 Bft) W 270 17,4 C 28,4 C 8,0 km/h (2 Bft)
19.06.2012 13:25 27,5 C 55 % 0,0 l/m 5,3 km/h (1 Bft) N-NW 337 17,6 C 28,8 C 8,4 km/h (2 Bft)
19.06.2012 13:30 28,0 C 55 % 0,0 l/m 4,8 km/h (1 Bft) NW 315 18,1 C 28,7 C 4,5 km/h (1 Bft)
19.06.2012 13:35 27,8 C 56 % 0,0 l/m 5,6 km/h (1 Bft) W 270 18,2 C 28,3 C 5,3 km/h (1 Bft)
19.06.2012 13:40 27,4 C 57 % 0,0 l/m 5,8 km/h (2 Bft) S-SW 202 18,1 C 28,1 C 7,9 km/h (2 Bft)
19.06.2012 13:45 27,7 C 55 % 0,0 l/m 6,1 km/h (2 Bft) W-NW 292 17,8 C 28,2 C 6,0 km/h (2 Bft)
19.06.2012 13:50 27,9 C 54 % 0,0 l/m 6,3 km/h (2 Bft) N-NW 337 17,7 C 28,7 C 4,8 km/h (1 Bft)
19.06.2012 13:55 27,8 C 56 % 0,0 l/m 5,6 km/h (1 Bft) W 270 18,2 C 28,9 C 6,4 km/h (2 Bft)
19.06.2012 14:00 27,7 C 55 % 0,0 l/m 5,8 km/h (2 Bft) NW 315 17,8 C 29,0 C 9,3 km/h (2 Bft)
19.06.2012 14:05 27,7 C 53 % 0,0 l/m 5,6 km/h (1 Bft) W 270 17,2 C 29,1 C 4,3 km/h (1 Bft)
19.06.2012 14:10 28,1 C 55 % 0,0 l/m 5,3 km/h (1 Bft) W-SW 247 18,2 C 29,5 C 6,1 km/h (2 Bft)
19.06.2012 14:15 28,4 C 53 % 0,0 l/m 5,0 km/h (1 Bft) W 270 17,9 C 29,6 C 8,2 km/h (2 Bft)
19.06.2012 14:20 28,2 C 55 % 0,0 l/m 5,8 km/h (2 Bft) W 270 18,3 C 29,6 C 9,2 km/h (2 Bft)
19.06.2012 14:25 28,0 C 56 % 0,0 l/m 6,0 km/h (2 Bft) S-SW 202 18,4 C 29,6 C 10,6 km/h (2 Bft)
19.06.2012 14:30 28,2 C 56 % 0,0 l/m 5,5 km/h (1 Bft) W 270 18,6 C 29,8 C 3,1 km/h (1 Bft)
19.06.2012 14:35 28,6 C 56 % 0,0 l/m 5,5 km/h (1 Bft) N 360 18,9 C 29,9 C 8,7 km/h (2 Bft)
19.06.2012 14:40 28,9 C 55 % 0,0 l/m 6,4 km/h (2 Bft) S-SW 202 18,9 C 29,7 C 5,0 km/h (1 Bft)
19.06.2012 14:45 29,1 C 54 % 0,0 l/m 7,1 km/h (2 Bft) SW 225 18,8 C 29,5 C 7,9 km/h (2 Bft)
19.06.2012 14:50 28,3 C 54 % 0,0 l/m 6,4 km/h (2 Bft) NW 315 18,1 C 29,6 C 4,0 km/h (1 Bft)
19.06.2012 14:55 28,5 C 57 % 0,0 l/m 6,0 km/h (2 Bft) W-NW 292 19,1 C 29,7 C 10,1 km/h (2 Bft)
19.06.2012 15:00 28,0 C 56 % 0,0 l/m 5,1 km/h (1 Bft) N-NO 22 18,4 C 29,4 C 2,1 km/h (1 Bft)
19.06.2012 15:05 28,1 C 56 % 0,0 l/m 5,8 km/h (2 Bft) W-SW 247 18,5 C 29,3 C 10,0 km/h (2 Bft)
19.06.2012 15:10 28,8 C 54 % 0,0 l/m 5,8 km/h (2 Bft) W 270 18,5 C 29,4 C 4,8 km/h (1 Bft)
19.06.2012 15:15 28,2 C 54 % 0,0 l/m 5,6 km/h (1 Bft) W 270 18,0 C 29,7 C 6,0 km/h (2 Bft)
19.06.2012 15:20 28,9 C 54 % 0,0 l/m 5,8 km/h (2 Bft) W 270 18,6 C 30,1 C 14,3 km/h (3 Bft)
19.06.2012 15:25 28,5 C 54 % 0,0 l/m 6,4 km/h (2 Bft) W-SW 247 18,3 C 29,9 C 9,5 km/h (2 Bft)
19.06.2012 15:30 28,5 C 54 % 0,0 l/m 7,4 km/h (2 Bft) W-SW 247 18,3 C 29,7 C 10,5 km/h (2 Bft)
19.06.2012 15:35 28,8 C 55 % 0,0 l/m 6,0 km/h (2 Bft) W-SW 247 18,8 C 30,1 C 11,4 km/h (2 Bft)
19.06.2012 15:40 28,8 C 52 % 0,0 l/m 6,1 km/h (2 Bft) S 180 17,9 C 30,2 C 7,7 km/h (2 Bft)
19.06.2012 15:45 28,9 C 52 % 0,0 l/m 7,4 km/h (2 Bft) W 270 18,0 C 30,0 C 7,2 km/h (2 Bft)
19.06.2012 15:50 28,4 C 53 % 0,0 l/m 6,8 km/h (2 Bft) W 270 17,9 C 29,6 C 9,2 km/h (2 Bft)
19.06.2012 15:55 28,6 C 53 % 0,0 l/m 6,8 km/h (2 Bft) W 270 18,1 C 29,6 C 12,6 km/h (3 Bft)
19.06.2012 16:00 28,8 C 51 % 0,0 l/m 5,8 km/h (2 Bft) S 180 17,6 C 30,3 C 6,8 km/h (2 Bft)
19.06.2012 16:05 28,6 C 52 % 0,0 l/m 5,1 km/h (1 Bft) N-NW 337 17,8 C 30,4 C 6,9 km/h (2 Bft)
19.06.2012 16:10 27,0 C 56 % 0,0 l/m 5,5 km/h (1 Bft) W-NW 292 17,5 C 29,3 C 5,1 km/h (1 Bft)
19.06.2012 16:15 27,2 C 56 % 0,0 l/m 4,8 km/h (1 Bft) W-NW 292 17,6 C 29,0 C 6,6 km/h (2 Bft)
19.06.2012 16:20 28,2 C 53 % 0,0 l/m 4,0 km/h (1 Bft) W 270 17,7 C 29,4 C 8,5 km/h (2 Bft)
19.06.2012 16:25 28,6 C 53 % 0,0 l/m 4,3 km/h (1 Bft) W 270 18,1 C 30,2 C 3,7 km/h (1 Bft)
19.06.2012 16:30 28,8 C 51 % 0,0 l/m 5,8 km/h (2 Bft) N-NW 337 17,6 C 30,9 C 5,8 km/h (2 Bft)
19.06.2012 16:35 28,2 C 52 % 0,0 l/m 6,0 km/h (2 Bft) W 270 17,4 C 30,8 C 7,4 km/h (2 Bft)
19.06.2012 16:40 28,0 C 52 % 0,0 l/m 6,4 km/h (2 Bft) W 270 17,2 C 30,4 C 7,1 km/h (2 Bft)
19.06.2012 16:45 27,7 C 53 % 0,0 l/m 6,1 km/h (2 Bft) W-SW 247 17,2 C 29,8 C 6,1 km/h (2 Bft)
19.06.2012 16:50 26,6 C 56 % 0,0 l/m 5,3 km/h (1 Bft) W-NW 292 17,1 C 28,4 C 9,8 km/h (2 Bft)
19.06.2012 16:55 26,4 C 57 % 0,0 l/m 5,3 km/h (1 Bft) S 180 17,2 C 27,8 C 9,0 km/h (2 Bft)
19.06.2012 17:00 26,6 C 58 % 0,0 l/m 5,1 km/h (1 Bft) S 180 17,6 C 27,6 C 3,9 km/h (1 Bft)
19.06.2012 17:05 26,6 C 58 % 0,0 l/m 4,8 km/h (1 Bft) S-SW 202 17,6 C 27,4 C 5,1 km/h (1 Bft)
19.06.2012 17:10 26,4 C 59 % 0,0 l/m 3,4 km/h (1 Bft) W 270 17,7 C 27,3 C 3,7 km/h (1 Bft)
19.06.2012 17:15 26,6 C 60 % 0,0 l/m 2,3 km/h (1 Bft) O-SO 112 18,2 C 27,5 C 3,1 km/h (1 Bft)
19.06.2012 17:20 26,3 C 60 % 0,0 l/m 2,7 km/h (1 Bft) W-SW 247 17,9 C 27,5 C 5,5 km/h (1 Bft)
19.06.2012 17:25 26,2 C 60 % 0,0 l/m 3,4 km/h (1 Bft) N-NO 22 17,8 C 27,3 C 3,7 km/h (1 Bft)
19.06.2012 17:30 25,8 C 63 % 0,0 l/m 3,9 km/h (1 Bft) W-NW 292 18,2 C 26,9 C 2,9 km/h (1 Bft)
19.06.2012 17:35 25,6 C 63 % 0,0 l/m 4,2 km/h (1 Bft) W 270 18,0 C 26,7 C 4,2 km/h (1 Bft)
19.06.2012 17:40 25,4 C 65 % 0,0 l/m 3,2 km/h (1 Bft) O-NO 67 18,3 C 26,4 C 0,0 km/h (0 Bft)
19.06.2012 17:45 25,3 C 65 % 0,0 l/m 1,9 km/h (1 Bft) N 360 18,2 C 26,2 C 0,0 km/h (0 Bft)
19.06.2012 17:50 24,8 C 66 % 0,0 l/m 1,4 km/h (1 Bft) S 180 18,0 C 25,7 C 0,0 km/h (0 Bft)
19.06.2012 17:55 24,5 C 67 % 0,0 l/m 1,9 km/h (1 Bft) SO 135 18,0 C 25,5 C 1,6 km/h (1 Bft)
19.06.2012 18:00 24,2 C 67 % 0,0 l/m 1,8 km/h (1 Bft) W-SW 247 17,7 C 25,0 C 1,8 km/h (1 Bft)
19.06.2012 18:05 24,1 C 69 % 0,0 l/m 1,3 km/h (1 Bft) N 360 18,0 C 24,8 C 0,0 km/h (0 Bft)
19.06.2012 18:10 23,6 C 70 % 0,0 l/m 0,3 km/h (0 Bft) W-SW 247 17,8 C 24,4 C 0,0 km/h (0 Bft)
19.06.2012 18:15 23,4 C 70 % 0,0 l/m 0,0 km/h (0 Bft) S 180 17,6 C 24,2 C 0,0 km/h (0 Bft)
19.06.2012 18:20 23,1 C 71 % 0,0 l/m 0,0 km/h (0 Bft) SO 135 17,5 C 23,9 C 0,0 km/h (0 Bft)
19.06.2012 18:25 23,1 C 71 % 0,0 l/m 0,5 km/h (0 Bft) S-SO 157 17,5 C 23,7 C 2,7 km/h (1 Bft)
19.06.2012 18:30 23,0 C 71 % 0,0 l/m 0,8 km/h (0 Bft) O-SO 112 17,4 C 23,5 C 0,0 km/h (0 Bft)
19.06.2012 18:35 22,9 C 74 % 0,0 l/m 1,1 km/h (1 Bft) S 180 18,0 C 23,4 C 1,6 km/h (1 Bft)
19.06.2012 18:40 22,7 C 75 % 0,0 l/m 2,1 km/h (1 Bft) SO 135 18,0 C 23,2 C 5,0 km/h (1 Bft)
19.06.2012 18:45 22,7 C 74 % 0,0 l/m 2,7 km/h (1 Bft) SO 135 17,8 C 23,0 C 3,5 km/h (1 Bft)
19.06.2012 18:50 22,5 C 75 % 0,0 l/m 3,1 km/h (1 Bft) S 180 17,8 C 22,8 C 5,0 km/h (1 Bft)
19.06.2012 18:55 22,3 C 76 % 0,0 l/m 3,2 km/h (1 Bft) O-SO 112 17,9 C 22,4 C 5,1 km/h (1 Bft)
19.06.2012 19:00 21,7 C 77 % 0,0 l/m 3,7 km/h (1 Bft) N-NO 22 17,5 C 21,6 C 3,4 km/h (1 Bft)
19.06.2012 19:05 21,4 C 78 % 0,0 l/m 3,1 km/h (1 Bft) O 90 17,4 C 21,0 C 1,6 km/h (1 Bft)
19.06.2012 19:10 20,6 C 85 % 0,0 l/m 2,1 km/h (1 Bft) NO 45 18,0 C 20,4 C 3,1 km/h (1 Bft)
19.06.2012 19:15 20,4 C 86 % 0,0 l/m 1,8 km/h (1 Bft) N 360 18,0 C 20,1 C 2,3 km/h (1 Bft)
19.06.2012 19:20 20,3 C 87 % 0,0 l/m 2,4 km/h (1 Bft) SW 225 18,1 C 19,9 C 5,1 km/h (1 Bft)
19.06.2012 19:25 20,2 C 87 % 0,7 l/m 2,4 km/h (1 Bft) N-NO 22 18,0 C 19,8 C 0,0 km/h (0 Bft)
19.06.2012 19:30 19,8 C 89 % 0,0 l/m 1,9 km/h (1 Bft) N-NO 22 17,9 C 19,7 C 3,2 km/h (1 Bft)
19.06.2012 19:35 19,6 C 89 % 0,0 l/m 2,1 km/h (1 Bft) W-NW 292 17,7 C 19,6 C 4,5 km/h (1 Bft)
19.06.2012 19:40 19,9 C 90 % 0,7 l/m 3,2 km/h (1 Bft) S 180 18,2 C 19,6 C 4,8 km/h (1 Bft)
19.06.2012 19:45 19,9 C 90 % 0,0 l/m 3,1 km/h (1 Bft) O 90 18,2 C 19,6 C 3,9 km/h (1 Bft)
19.06.2012 19:50 19,7 C 90 % 0,0 l/m 3,4 km/h (1 Bft) NW 315 18,0 C 19,6 C 3,4 km/h (1 Bft)
19.06.2012 19:55 19,5 C 90 % 0,0 l/m 3,5 km/h (1 Bft) N 360 17,8 C 19,4 C 0,0 km/h (0 Bft)
19.06.2012 20:00 19,4 C 90 % 0,0 l/m 1,3 km/h (1 Bft) S 180 17,7 C 19,4 C 2,6 km/h (1 Bft)
19.06.2012 20:05 19,4 C 90 % 0,7 l/m 1,1 km/h (1 Bft) NO 45 17,7 C 19,3 C 0,0 km/h (0 Bft)
19.06.2012 20:10 19,3 C 90 % 0,0 l/m 1,9 km/h (1 Bft) NO 45 17,6 C 19,2 C 0,0 km/h (0 Bft)
19.06.2012 20:15 19,1 C 90 % 0,0 l/m 1,1 km/h (1 Bft) NO 45 17,4 C 19,2 C 0,0 km/h (0 Bft)
19.06.2012 20:20 19,2 C 90 % 0,0 l/m 0,5 km/h (0 Bft) W-NW 292 17,5 C 19,2 C 0,0 km/h (0 Bft)
19.06.2012 20:25 19,2 C 90 % 0,0 l/m 0,0 km/h (0 Bft) N-NW 337 17,5 C 19,3 C 0,0 km/h (0 Bft)
19.06.2012 20:30 19,3 C 91 % 0,0 l/m 1,0 km/h (0 Bft) W-NW 292 17,8 C 19,4 C 2,7 km/h (1 Bft)
19.06.2012 20:35 19,4 C 91 % 0,0 l/m 1,8 km/h (1 Bft) N 360 17,9 C 19,5 C 0,0 km/h (0 Bft)
19.06.2012 20:40 19,4 C 91 % 0,0 l/m 1,3 km/h (1 Bft) N-NW 337 17,9 C 19,5 C 0,0 km/h (0 Bft)
19.06.2012 20:45 19,4 C 91 % 0,0 l/m 0,5 km/h (0 Bft) S 180 17,9 C 19,4 C 0,0 km/h (0 Bft)
19.06.2012 20:50 19,3 C 91 % 0,0 l/m 0,6 km/h (0 Bft) NO 45 17,8 C 19,4 C 0,0 km/h (0 Bft)
19.06.2012 20:55 19,2 C 91 % 0,0 l/m 0,5 km/h (0 Bft) SO 135 17,7 C 19,3 C 0,0 km/h (0 Bft)
19.06.2012 21:00 19,1 C 91 % 0,0 l/m 0,2 km/h (0 Bft) W-SW 247 17,6 C 19,2 C 0,0 km/h (0 Bft)
19.06.2012 21:05 19,1 C 91 % 0,0 l/m 0,0 km/h (0 Bft) W-SW 247 17,6 C 19,1 C 2,1 km/h (1 Bft)
19.06.2012 21:10 18,9 C 91 % 0,0 l/m 0,2 km/h (0 Bft) SW 225 17,4 C 18,9 C 0,0 km/h (0 Bft)
19.06.2012 21:15 18,7 C 91 % 0,0 l/m 0,6 km/h (0 Bft) W-SW 247 17,2 C 18,8 C 0,0 km/h (0 Bft)
19.06.2012 21:20 18,5 C 91 % 0,0 l/m 0,6 km/h (0 Bft) W-NW 292 17,0 C 18,6 C 2,3 km/h (1 Bft)
19.06.2012 21:25 18,4 C 91 % 0,0 l/m 0,5 km/h (0 Bft) W-SW 247 16,9 C 18,4 C 0,0 km/h (0 Bft)
19.06.2012 21:30 18,1 C 91 % 0,0 l/m 0,3 km/h (0 Bft) S 180 16,6 C 18,1 C 0,0 km/h (0 Bft)
19.06.2012 21:33 17,9 C 91 % 0,0 l/m 0,2 km/h (0 Bft) W-NW 292 16,4 C 17,9 C 0,0 km/h (0 Bft)
19.06.2012 21:38 17,9 C 91 % 0,0 l/m 0,3 km/h (0 Bft) NO 45 16,4 C 17,9 C 3,4 km/h (1 Bft)
19.06.2012 21:43 17,9 C 91 % 0,0 l/m 0,5 km/h (0 Bft) N 360 16,4 C 17,9 C 0,0 km/h (0 Bft)
19.06.2012 21:48 17,9 C 92 % 0,0 l/m 0,3 km/h (0 Bft) N-NO 22 16,6 C 17,9 C 2,1 km/h (1 Bft)
19.06.2012 21:53 17,9 C 92 % 0,0 l/m 0,6 km/h (0 Bft) NW 315 16,6 C 17,9 C 1,6 km/h (1 Bft)
19.06.2012 21:58 17,9 C 92 % 0,0 l/m 0,6 km/h (0 Bft) N-NW 337 16,6 C 17,9 C 0,0 km/h (0 Bft)
19.06.2012 22:03 17,8 C 92 % 0,0 l/m 0,3 km/h (0 Bft) N 360 16,5 C 17,8 C 0,0 km/h (0 Bft)
19.06.2012 22:08 17,7 C 92 % 0,0 l/m 0,2 km/h (0 Bft) W-NW 292 16,4 C 17,7 C 0,0 km/h (0 Bft)
19.06.2012 22:12 17,7 C 92 % 0,0 l/m 0,2 km/h (0 Bft) W-NW 292 16,4 C 17,7 C 0,0 km/h (0 Bft)
19.06.2012 22:15 17,7 C 92 % 0,0 l/m 0,2 km/h (0 Bft) W-NW 292 16,4 C 17,7 C 0,0 km/h (0 Bft)
19.06.2012 22:18 17,7 C 92 % 0,0 l/m 0,6 km/h (0 Bft) W-SW 247 16,4 C 17,7 C 0,0 km/h (0 Bft)
19.06.2012 22:23 17,7 C 92 % 0,0 l/m 0,6 km/h (0 Bft) N-NO 22 16,4 C 17,7 C 0,0 km/h (0 Bft)
19.06.2012 22:28 17,7 C 92 % 0,0 l/m 0,3 km/h (0 Bft) N-NW 337 16,4 C 17,7 C 0,0 km/h (0 Bft)
19.06.2012 22:33 17,6 C 92 % 0,0 l/m 0,2 km/h (0 Bft) N-NO 22 16,3 C 17,7 C 0,0 km/h (0 Bft)
19.06.2012 22:38 17,6 C 92 % 0,0 l/m 0,5 km/h (0 Bft) S 180 16,3 C 17,7 C 0,0 km/h (0 Bft)
19.06.2012 22:43 17,5 C 92 % 0,0 l/m 0,3 km/h (0 Bft) N-NW 337 16,2 C 17,6 C 0,0 km/h (0 Bft)
19.06.2012 22:48 17,4 C 92 % 0,0 l/m 0,2 km/h (0 Bft) S-SW 202 16,1 C 17,6 C 0,0 km/h (0 Bft)
19.06.2012 22:53 17,4 C 92 % 0,0 l/m 0,3 km/h (0 Bft) S 180 16,1 C 17,6 C 0,0 km/h (0 Bft)
19.06.2012 22:58 17,4 C 92 % 0,0 l/m 0,3 km/h (0 Bft) W-NW 292 16,1 C 17,5 C 0,0 km/h (0 Bft)
19.06.2012 23:03 17,4 C 92 % 0,0 l/m 0,2 km/h (0 Bft) W-SW 247 16,1 C 17,5 C 0,0 km/h (0 Bft)
19.06.2012 23:08 17,4 C 92 % 0,0 l/m 0,3 km/h (0 Bft) SO 135 16,1 C 17,5 C 0,0 km/h (0 Bft)
19.06.2012 23:13 17,3 C 92 % 0,0 l/m 0,3 km/h (0 Bft) N-NO 22 16,0 C 17,4 C 2,7 km/h (1 Bft)
19.06.2012 23:18 17,3 C 92 % 0,0 l/m 0,5 km/h (0 Bft) N 360 16,0 C 17,3 C 2,3 km/h (1 Bft)
19.06.2012 23:23 17,3 C 92 % 0,0 l/m 2,6 km/h (1 Bft) SO 135 16,0 C 17,3 C 8,0 km/h (2 Bft)
19.06.2012 23:28 17,3 C 92 % 0,0 l/m 3,9 km/h (1 Bft) N-NO 22 16,0 C 17,5 C 2,7 km/h (1 Bft)
19.06.2012 23:33 17,5 C 93 % 0,0 l/m 3,1 km/h (1 Bft) O-SO 112 16,4 C 17,3 C 3,2 km/h (1 Bft)
19.06.2012 23:38 17,5 C 93 % 0,0 l/m 2,7 km/h (1 Bft) O 90 16,4 C 17,5 C 5,1 km/h (1 Bft)
19.06.2012 23:43 17,5 C 93 % 0,0 l/m 2,7 km/h (1 Bft) O-SO 112 16,4 C 17,6 C 2,3 km/h (1 Bft)
19.06.2012 23:48 17,3 C 93 % 0,0 l/m 1,6 km/h (1 Bft) O-SO 112 16,2 C 17,4 C 4,8 km/h (1 Bft)
19.06.2012 23:53 17,2 C 93 % 0,0 l/m 1,0 km/h (0 Bft) O-SO 112 16,1 C 17,3 C 5,0 km/h (1 Bft)
19.06.2012 23:58 17,2 C 93 % 0,0 l/m 1,6 km/h (1 Bft) N-NW 337 16,1 C 17,3 C 2,4 km/h (1 Bft)
_ Min-Zeit 00:50 16:30 - 21:05 - - 00:35 00:40 23:08
Minimum _ 13,5 C 51 % - 0,0 km/h (0 Bft) - - 11,4 C 8,4 C 0,0 km/h (0 Bft)
_ Max-Zeit 14:45 23:58 00:40 00:40 - - 10:30 16:30 00:30
Maximum _ 29,1 C 93 % 8,9 l/m 14,6 km/h
SO (3 Bft)
- - 20,9 C 30,9 C 27,8 km/h
SO (4 Bft)
Durchschnitt _ 20,4 C 79 % #37,8 l/m 3,1 km/h (1 Bft) W-NW - 16,2 C 21,0 C 3,9 km/h (1 Bft)